Portada
METAR-TAF:

METAR-TAF

Aeroports :

Ranong, Tailàndia

latitud: 09-59N, longitud: 098-37E, altitud: 7 m

Observació

L'informe es va fer fa 36 minuts, a les 00:00 UTC
Vent calma
Temperatura 25°C
Humitat 94%
Pressió 1010 hPa
Visibilitat 10 km o més
Escasses núvols a una alçada de 2000 ft

METAR: VTSR 040000Z 00000KT 9999 FEW020 25/24 Q1010 NOSIG

Hora: 07:36 (00:36 UTC)

Pronòstic

L'informe es va fer fa 1 hora i 36 minuts, a les 23:00 UTC
Pronòstic vàlid del 04 a les 00 UTC al 04 a les 24 UTC
Vent 8 kt del Est/Sud-Est
Visibilitat 10 km o més
Escasses núvols a una alçada de 2000 ft
Evolucionant progressivament
l' 04 a les 04 UTC al 04 a les 06 UTC
Vent 8 kt del Oest
Evolucionant progressivament
l' 04 a les 14 UTC al 04 a les 16 UTC
Vent kt del Nord

TAF: VTSR 032300Z 0400/0424 11008KT 9999 FEW020 BECMG 0404/0406 28008KT BECMG 0414/0416 00000KT

Observacions i pronòstics meteorològics de més de 4000 aeroports (METAR i TAF).

Les estacions disponibles són els punts grocs i vermells al mapa.

Posi el ratolí al punt desitjat per veure el nom de l'estació.

Feu clic per veure les observacions i els pronòstics meteorològics.

Per canviar el mapa: feu clic els botons verds amb una creu de color negre per apropar; al botó verd amb un guió per allunyar la imatge; o en les fletxes verdes per a mapes adjacents.


METAR-TAF: